Time;durP1;ratioP1;P1;durP2;ratioP2;P2;SDS_P1;SDS_P2;PMS_P1;PMS_P2;Temp;Humidity;BMP_temperature;BMP_pressure;BME280_temperature;BME280_humidity;BME280_pressure;Samples;Min_cycle;Max_cycle;Signal;HPM_P1;HPM_P2
2021/03/16 00:00:15;;;;;;;23.18;14.60;;;;;;;0.43;71.01;95659.67;1780307;80;21114;-83
2021/03/16 00:02:43;;;;;;;22.20;15.30;;;;;;;0.42;71.07;95655.97;1780507;81;21127;-83
2021/03/16 00:05:10;;;;;;;20.70;14.45;;;;;;;0.40;71.10;95656.12;1780239;80;21099;-83
2021/03/16 00:07:36;;;;;;;21.45;15.38;;;;;;;0.38;71.17;95651.62;1780291;81;21119;-83
2021/03/16 00:10:04;;;;;;;21.25;14.05;;;;;;;0.37;71.22;95656.87;1780391;81;21126;-83
2021/03/16 00:12:30;;;;;;;21.07;14.78;;;;;;;0.36;71.27;95661.17;1780238;81;21087;-83
2021/03/16 00:14:56;;;;;;;20.37;14.58;;;;;;;0.35;71.28;95655.73;1780433;81;21127;-83
2021/03/16 00:17:22;;;;;;;24.90;16.80;;;;;;;0.34;71.33;95657.95;1780402;81;21138;-83
2021/03/16 00:19:48;;;;;;;19.82;14.13;;;;;;;0.32;71.38;95660.28;1780516;80;21119;-83
2021/03/16 00:22:14;;;;;;;22.55;16.00;;;;;;;0.30;71.48;95654.84;1780445;81;21253;-83
2021/03/16 00:24:40;;;;;;;22.62;15.90;;;;;;;0.28;71.53;95654.64;1780405;80;21242;-83
2021/03/16 00:27:06;;;;;;;22.42;14.58;;;;;;;0.28;71.55;95656.73;1780417;80;21107;-83
2021/03/16 00:29:32;;;;;;;21.35;15.55;;;;;;;0.28;71.59;95656.73;1780436;81;21138;-83
2021/03/16 00:31:58;;;;;;;20.43;15.35;;;;;;;0.28;71.58;95666.95;1780402;81;21111;-83
2021/03/16 00:34:24;;;;;;;23.42;15.80;;;;;;;0.28;71.59;95658.48;1780441;80;21130;-83
2021/03/16 00:36:50;;;;;;;21.70;14.90;;;;;;;0.30;71.62;95666.81;1780455;81;21252;-83
2021/03/16 00:39:16;;;;;;;21.85;15.20;;;;;;;0.31;71.61;95663.31;1780678;81;21237;-83
2021/03/16 00:41:42;;;;;;;21.95;15.18;;;;;;;0.31;71.51;95665.86;1780706;81;21110;-83
2021/03/16 00:44:07;;;;;;;21.75;15.38;;;;;;;0.28;71.48;95668.22;1780368;80;21377;-82
2021/03/16 00:46:34;;;;;;;24.82;15.25;;;;;;;0.27;71.59;95673.47;1780653;80;21301;-83
2021/03/16 00:49:01;;;;;;;26.07;16.17;;;;;;;0.28;71.69;95676.36;1786299;80;21298;-83
2021/03/16 00:51:28;;;;;;;25.00;17.05;;;;;;;0.26;71.74;95666.75;1786397;80;21110;-83
2021/03/16 00:53:54;;;;;;;23.12;16.70;;;;;;;0.25;71.71;95672.81;1786187;80;21107;-83
2021/03/16 00:56:20;;;;;;;27.13;17.67;;;;;;;0.26;71.72;95675.22;1786391;80;21109;-83
2021/03/16 00:58:46;;;;;;;25.27;18.77;;;;;;;0.28;71.74;95672.53;1786329;80;21138;-83
2021/03/16 01:01:12;;;;;;;28.90;17.35;;;;;;;0.30;71.64;95682.95;1786260;80;21098;-83
2021/03/16 01:03:39;;;;;;;24.92;17.35;;;;;;;0.32;71.61;95673.86;1786089;80;21369;-83
2021/03/16 01:06:06;;;;;;;23.75;16.70;;;;;;;0.33;71.66;95678.06;1757895;80;21244;-83
2021/03/16 01:08:31;;;;;;;26.68;17.10;;;;;;;0.34;71.69;95675.03;1786294;80;21114;-83
2021/03/16 01:10:58;;;;;;;26.33;17.73;;;;;;;0.35;71.78;95674.09;1786375;80;21245;-83
2021/03/16 01:13:24;;;;;;;29.57;17.73;;;;;;;0.38;71.85;95675.09;1786132;80;21130;-83
2021/03/16 01:15:50;;;;;;;25.40;18.25;;;;;;;0.42;72.01;95677.70;1786401;80;21138;-83
2021/03/16 01:18:17;;;;;;;28.17;18.23;;;;;;;0.48;72.06;95686.09;1786259;80;21130;-83
2021/03/16 01:20:43;;;;;;;26.62;18.70;;;;;;;0.53;72.17;95682.20;1786190;80;21271;-83
2021/03/16 01:23:09;;;;;;;28.85;18.52;;;;;;;0.60;72.29;95683.25;1786157;80;21280;-83
2021/03/16 01:25:35;;;;;;;32.15;19.80;;;;;;;0.64;72.20;95680.41;1786219;80;21145;-83
2021/03/16 01:28:00;;;;;;;31.27;21.37;;;;;;;0.67;72.05;95674.58;1786162;80;21099;-83
2021/03/16 01:30:26;;;;;;;32.10;21.48;;;;;;;0.72;72.10;95681.36;1786078;80;21105;-83
2021/03/16 01:32:53;;;;;;;30.95;21.90;;;;;;;0.78;72.13;95681.27;1757810;80;21118;-83
2021/03/16 01:35:19;;;;;;;30.43;21.20;;;;;;;0.83;72.24;95676.56;1786214;80;21129;-83
2021/03/16 01:37:45;;;;;;;31.15;20.88;;;;;;;0.85;72.12;95679.78;1786206;80;21103;-83
2021/03/16 01:40:15;;;;;;;33.95;21.93;;;;;;;0.88;71.83;95675.66;1786241;80;21322;-83
2021/03/16 01:42:41;;;;;;;30.95;21.05;;;;;;;0.94;71.72;95675.09;1784934;80;21146;-83
2021/03/16 01:45:11;;;;;;;30.82;20.75;;;;;;;0.97;71.96;95677.84;1786250;80;21106;-83
2021/03/16 01:47:43;;;;;;;29.25;19.10;;;;;;;0.99;71.78;95675.97;1784172;80;21127;-83
2021/03/16 01:50:12;;;;;;;28.92;18.60;;;;;;;1.00;71.65;95671.99;1780297;81;21357;-83
2021/03/16 01:52:38;;;;;;;27.32;18.98;;;;;;;1.05;71.59;95674.13;1780426;81;21266;-83
2021/03/16 01:55:05;;;;;;;30.77;19.85;;;;;;;1.08;71.48;95671.28;1780381;81;21090;-83
2021/03/16 01:57:32;;;;;;;29.52;19.70;;;;;;;1.10;71.32;95672.75;1780501;81;21246;-83
2021/03/16 01:59:58;;;;;;;30.23;19.98;;;;;;;1.12;71.19;95674.69;1780548;80;21127;-83
2021/03/16 02:02:24;;;;;;;30.15;18.92;;;;;;;1.15;71.29;95676.19;1758542;81;21091;-83
2021/03/16 02:04:50;;;;;;;31.05;20.27;;;;;;;1.16;71.36;95676.52;1780633;81;21122;-83
2021/03/16 02:07:27;;;;;;;29.80;20.57;;;;;;;1.15;71.44;95674.43;1780332;81;21119;-83
2021/03/16 02:10:05;;;;;;;36.10;22.50;;;;;;;1.15;71.48;95671.87;1780102;80;21372;-83
2021/03/16 02:12:38;;;;;;;40.67;24.50;;;;;;;1.15;71.31;95674.91;1759456;80;21118;-83
2021/03/16 02:15:15;;;;;;;42.53;25.00;;;;;;;1.13;71.49;95678.86;1780337;80;21253;-83
2021/03/16 02:17:41;;;;;;;42.55;25.35;;;;;;;1.16;71.59;95684.19;1780325;81;21107;-83
2021/03/16 02:20:30;;;;;;;44.98;24.32;;;;;;;1.17;71.48;95682.77;1780641;81;21138;-83
2021/03/16 02:22:56;;;;;;;42.58;26.65;;;;;;;1.18;71.41;95689.97;1780293;81;21278;-83
2021/03/16 02:25:53;;;;;;;40.52;24.55;;;;;;;1.21;71.43;95684.56;1780574;80;21224;-83
2021/03/16 02:28:55;;;;;;;38.25;23.07;;;;;;;1.20;71.31;95681.20;1780339;81;21322;-83
2021/03/16 02:31:21;;;;;;;36.93;21.68;;;;;;;1.20;71.60;95677.84;1780489;81;21110;-83
2021/03/16 02:33:47;;;;;;;34.13;22.17;;;;;;;1.21;71.51;95682.01;1780551;80;21409;-83
2021/03/16 02:36:13;;;;;;;42.30;23.73;;;;;;;1.22;71.70;95686.66;1780443;81;21136;-83
2021/03/16 02:38:43;;;;;;;35.50;21.02;;;;;;;1.21;72.09;95685.84;1780320;81;21385;-83
2021/03/16 02:41:10;;;;;;;31.45;20.62;;;;;;;1.23;71.89;95686.98;1780426;81;21225;-83
2021/03/16 02:43:36;;;;;;;34.90;20.95;;;;;;;1.30;71.70;95694.41;1780300;81;21231;-82
2021/03/16 02:46:05;;;;;;;33.45;20.70;;;;;;;1.34;71.52;95694.02;1780598;80;21744;-83
2021/03/16 02:48:31;;;;;;;29.15;19.07;;;;;;;1.36;71.79;95692.59;1783698;80;21110;-83
2021/03/16 02:50:57;;;;;;;30.05;19.80;;;;;;;1.37;71.78;95689.08;1786089;80;21134;-83
2021/03/16 02:53:23;;;;;;;31.15;21.00;;;;;;;1.37;71.61;95693.72;1786090;80;21322;-83
2021/03/16 02:55:49;;;;;;;31.42;20.77;;;;;;;1.40;71.16;95693.44;1786271;80;21138;-83
2021/03/16 02:58:15;;;;;;;27.73;20.05;;;;;;;1.43;71.18;95691.86;1786294;80;21115;-83
2021/03/16 03:00:42;;;;;;;29.10;18.65;;;;;;;1.47;71.27;95694.97;1786107;80;21122;-83
2021/03/16 03:03:08;;;;;;;26.85;18.73;;;;;;;1.44;71.25;95698.59;1786065;80;21276;-83
2021/03/16 03:05:34;;;;;;;25.02;18.12;;;;;;;1.41;71.22;95695.05;1786143;80;21248;-83
2021/03/16 03:08:00;;;;;;;25.35;17.07;;;;;;;1.38;71.21;95694.53;1757761;80;21108;-83
2021/03/16 03:10:26;;;;;;;27.35;18.65;;;;;;;1.35;71.20;95691.78;1786097;80;21091;-83
2021/03/16 03:12:53;;;;;;;28.62;18.82;;;;;;;1.31;71.02;95690.94;1786273;80;21111;-83
2021/03/16 03:15:19;;;;;;;27.82;19.42;;;;;;;1.25;71.01;95692.28;1786193;80;21114;-83
2021/03/16 03:17:46;;;;;;;26.70;18.25;;;;;;;1.21;70.93;95696.08;1786078;80;21158;-83
2021/03/16 03:20:13;;;;;;;30.75;19.48;;;;;;;1.17;70.88;95696.84;1786347;80;21102;-83
2021/03/16 03:22:51;;;;;;;33.10;21.05;;;;;;;1.14;70.83;95697.13;1786163;80;21138;-83
2021/03/16 03:25:22;;;;;;;30.08;20.97;;;;;;;1.08;70.80;95698.95;1786066;80;21232;-83
2021/03/16 03:27:52;;;;;;;35.43;23.50;;;;;;;0.96;70.86;95696.22;1786489;80;21091;-83
2021/03/16 03:30:19;;;;;;;34.65;24.18;;;;;;;0.96;70.86;95696.22;1786006;80;21416;-83
2021/03/16 03:32:45;;;;;;;40.33;24.45;;;;;;;0.89;70.58;95696.45;1786248;80;21122;-83
2021/03/16 03:35:12;;;;;;;43.02;27.62;;;;;;;0.82;70.55;95697.49;1786079;80;21122;-83
2021/03/16 03:37:38;;;;;;;39.80;26.68;;;;;;;0.77;70.58;95693.72;1732975;80;21145;-83
2021/03/16 03:40:05;;;;;;;48.65;30.68;;;;;;;0.71;70.56;95686.14;1786275;80;21110;-83
2021/03/16 03:42:31;;;;;;;46.33;28.85;;;;;;;0.69;70.63;95692.34;1786014;80;21248;-83
2021/03/16 03:44:57;;;;;;;46.70;31.00;;;;;;;0.66;70.71;95700.28;1785990;80;21142;-83
2021/03/16 03:47:23;;;;;;;50.63;29.90;;;;;;;0.67;70.83;95704.45;1785900;80;21121;-83
2021/03/16 03:49:49;;;;;;;45.35;28.10;;;;;;;0.66;70.87;95707.48;1780279;81;21305;-83
2021/03/16 03:52:15;;;;;;;41.68;26.65;;;;;;;0.66;70.91;95705.40;1780388;81;21248;-83
2021/03/16 03:54:43;;;;;;;43.98;27.52;;;;;;;0.65;70.93;95707.59;1780287;80;21071;-83
2021/03/16 03:57:10;;;;;;;41.50;26.27;;;;;;;0.64;70.97;95714.93;1780241;81;21253;-83
2021/03/16 03:59:44;;;;;;;44.80;26.33;;;;;;;0.63;71.07;95715.41;1780400;81;21083;-83
2021/03/16 04:02:10;;;;;;;40.08;27.32;;;;;;;0.64;71.06;95722.59;1780528;81;21228;-83
2021/03/16 04:04:38;;;;;;;40.17;26.20;;;;;;;0.64;71.27;95732.83;1758476;81;21162;-83
2021/03/16 04:07:04;;;;;;;49.33;30.55;;;;;;;0.66;71.22;95739.91;1780628;81;21299;-83
2021/03/16 04:09:31;;;;;;;45.83;29.82;;;;;;;0.64;71.16;95735.38;1780457;81;21322;-83
2021/03/16 04:11:57;;;;;;;47.73;30.65;;;;;;;0.59;71.41;95730.69;1780383;81;21127;-83
2021/03/16 04:14:25;;;;;;;47.88;29.98;;;;;;;0.51;71.57;95736.49;1780464;81;21146;-83
2021/03/16 04:16:51;;;;;;;45.20;29.15;;;;;;;0.50;71.66;95743.02;1780457;81;21448;-83
2021/03/16 04:19:17;;;;;;;43.92;27.58;;;;;;;0.47;71.76;95733.84;1780368;81;21123;-83
2021/03/16 04:21:44;;;;;;;40.92;26.37;;;;;;;0.48;71.71;95749.52;1780539;81;21118;-83
2021/03/16 04:24:10;;;;;;;42.33;27.35;;;;;;;0.50;71.81;95748.13;1780583;80;21349;-83
2021/03/16 04:26:36;;;;;;;45.55;29.37;;;;;;;0.54;71.85;95745.16;1758792;81;21119;-83
2021/03/16 04:29:03;;;;;;;44.30;28.02;;;;;;;0.60;71.88;95750.20;1780351;80;21119;-83
2021/03/16 04:31:29;;;;;;;47.55;30.08;;;;;;;0.64;71.96;95750.72;1780475;80;21078;-83
2021/03/16 04:33:55;;;;;;;42.80;28.60;;;;;;;0.68;71.83;95752.89;1780494;80;21092;-83
2021/03/16 04:36:20;;;;;;;46.25;28.75;;;;;;;0.73;71.90;95746.09;1780422;80;21107;-83
2021/03/16 04:38:46;;;;;;;43.68;26.17;;;;;;;0.74;71.70;95751.53;1780591;80;21131;-83
2021/03/16 04:41:12;;;;;;;37.20;26.68;;;;;;;0.76;71.84;95751.73;1780623;80;21318;-83
2021/03/16 04:43:41;;;;;;;35.92;23.55;;;;;;;0.78;71.88;95757.51;1780475;81;21328;-83
2021/03/16 04:46:07;;;;;;;35.70;21.97;;;;;;;0.80;71.88;95753.06;1780096;81;21225;-83
2021/03/16 04:48:33;;;;;;;31.87;21.12;;;;;;;0.82;71.92;95760.63;1783715;80;21134;-83
2021/03/16 04:50:59;;;;;;;34.92;23.62;;;;;;;0.77;71.89;95767.88;1788966;80;21087;-83
2021/03/16 04:53:25;;;;;;;35.17;23.52;;;;;;;0.73;71.91;95772.46;1789066;80;21129;-83
2021/03/16 04:55:51;;;;;;;37.63;23.57;;;;;;;0.73;72.01;95765.27;1789042;80;21106;-83
2021/03/16 04:58:17;;;;;;;33.45;21.50;;;;;;;0.74;71.88;95768.16;1789286;80;21114;-83
2021/03/16 05:00:43;;;;;;;33.40;22.95;;;;;;;0.76;71.82;95774.74;1788864;80;21114;-83
2021/03/16 05:03:09;;;;;;;35.65;24.47;;;;;;;0.76;71.66;95771.37;1788954;80;21162;-83
2021/03/16 05:05:35;;;;;;;35.03;22.62;;;;;;;0.75;71.85;95773.13;1789020;80;21247;-83
2021/03/16 05:08:01;;;;;;;33.95;23.27;;;;;;;0.79;72.07;95777.49;1788980;80;21106;-83
2021/03/16 05:10:27;;;;;;;33.63;22.02;;;;;;;0.87;71.99;95773.80;1788946;80;21313;-83
2021/03/16 05:12:53;;;;;;;34.60;23.02;;;;;;;0.90;71.95;95779.44;1788954;80;21313;-83
2021/03/16 05:15:19;;;;;;;39.42;23.47;;;;;;;0.92;71.71;95778.49;1789008;80;21298;-83
2021/03/16 05:17:45;;;;;;;33.15;24.57;;;;;;;0.93;71.53;95774.98;1789189;80;21114;-83
2021/03/16 05:20:11;;;;;;;40.38;24.07;;;;;;;0.96;71.37;95783.19;1788901;80;21345;-83
2021/03/16 05:22:37;;;;;;;34.43;24.67;;;;;;;0.98;71.39;95773.66;1788934;80;21329;-83
2021/03/16 05:25:05;;;;;;;28.25;21.05;;;;;;;1.02;71.32;95788.25;1789157;80;21114;-83
2021/03/16 05:27:31;;;;;;;33.78;21.87;;;;;;;1.04;71.47;95777.41;1789051;80;21290;-83
2021/03/16 05:29:57;;;;;;;32.08;22.85;;;;;;;1.00;71.50;95782.00;1788977;80;21118;-82
2021/03/16 05:32:23;;;;;;;34.90;22.87;;;;;;;1.01;71.80;95775.94;1788965;80;21118;-83
2021/03/16 05:34:49;;;;;;;30.60;22.27;;;;;;;1.03;71.67;95780.44;1788916;80;21224;-83
2021/03/16 05:37:15;;;;;;;35.95;25.48;;;;;;;1.10;71.78;95780.69;1789025;80;21229;-83
2021/03/16 05:39:41;;;;;;;39.05;25.97;;;;;;;1.18;71.61;95783.38;1788972;80;21129;-83
2021/03/16 05:42:07;;;;;;;37.85;27.02;;;;;;;1.25;71.59;95782.33;1789138;80;21325;-83
2021/03/16 05:44:33;;;;;;;39.60;27.48;;;;;;;1.27;71.42;95791.95;1788981;80;21276;-83
2021/03/16 05:47:01;;;;;;;44.35;28.17;;;;;;;1.30;71.48;95799.34;1789347;80;21558;-83
2021/03/16 05:49:27;;;;;;;43.20;28.60;;;;;;;1.28;71.18;95797.41;1788949;80;21132;-83
2021/03/16 05:51:53;;;;;;;44.33;28.47;;;;;;;1.26;71.26;95792.43;1788917;80;21100;-83
2021/03/16 05:54:19;;;;;;;40.33;28.15;;;;;;;1.29;71.36;95793.90;1789023;80;21114;-83
2021/03/16 05:56:45;;;;;;;39.10;27.70;;;;;;;1.33;71.35;95793.98;1760418;80;21122;-83
2021/03/16 05:59:11;;;;;;;43.35;27.70;;;;;;;1.39;71.65;95796.78;1788863;80;21248;-83
2021/03/16 06:01:37;;;;;;;48.08;29.20;;;;;;;1.42;71.35;95795.69;1788957;80;21221;-83
2021/03/16 06:04:03;;;;;;;42.75;29.60;;;;;;;1.45;71.33;95801.80;1788943;80;21169;-83
2021/03/16 06:06:32;;;;;;;54.05;34.88;;;;;;;1.47;71.16;95805.06;1788928;80;21341;-83
2021/03/16 06:08:58;;;;;;;98.35;64.00;;;;;;;1.50;71.14;95806.86;1788873;80;21110;-83
2021/03/16 06:11:25;;;;;;;100.30;64.15;;;;;;;1.56;71.27;95805.48;1760108;80;21102;-83
2021/03/16 06:13:53;;;;;;;80.70;50.15;;;;;;;1.60;71.32;95815.77;1789120;80;21309;-83
2021/03/16 06:16:20;;;;;;;68.52;40.50;;;;;;;1.65;71.39;95821.30;1788909;80;21345;-83
2021/03/16 06:18:47;;;;;;;51.50;34.43;;;;;;;1.71;71.43;95829.69;1788909;80;21460;-83
2021/03/16 06:21:22;;;;;;;52.45;34.33;;;;;;;1.71;70.99;95834.00;1788876;80;21122;-83
2021/03/16 06:24:00;;;;;;;48.90;31.00;;;;;;;1.73;71.07;95835.95;1788966;80;21377;-83
2021/03/16 06:26:27;;;;;;;46.58;32.33;;;;;;;1.74;70.80;95846.05;1788855;80;21280;-83
2021/03/16 06:29:10;;;;;;;54.90;34.35;;;;;;;1.71;70.89;95847.63;1788870;80;21130;-83
2021/03/16 06:31:36;;;;;;;63.28;39.48;;;;;;;1.73;70.83;95850.03;1788997;80;21264;-83
2021/03/16 06:34:03;;;;;;;107.30;57.88;;;;;;;1.69;70.72;95849.52;1760562;80;21134;-83
2021/03/16 06:36:30;;;;;;;143.30;85.10;;;;;;;1.64;70.80;95854.27;1788907;80;21110;-83
2021/03/16 06:38:56;;;;;;;66.75;38.63;;;;;;;1.63;70.91;95852.65;1788927;80;21236;-83
2021/03/16 06:41:23;;;;;;;108.83;59.85;;;;;;;1.61;70.98;95851.95;1789054;80;21317;-83
2021/03/16 06:43:55;;;;;;;102.92;53.85;;;;;;;1.60;71.14;95858.50;1788942;80;21142;-83
2021/03/16 06:46:32;;;;;;;58.05;38.13;;;;;;;1.55;71.18;95861.48;1788952;80;21117;-83
2021/03/16 06:48:59;;;;;;;56.95;35.20;;;;;;;1.56;71.17;95863.09;1785657;80;21126;-83
2021/03/16 06:51:27;;;;;;;59.65;37.78;;;;;;;1.58;71.31;95870.16;1780485;81;21245;-83
2021/03/16 06:54:09;;;;;;;103.97;61.18;;;;;;;1.64;71.64;95867.06;1758382;81;21083;-83
2021/03/16 06:56:39;;;;;;;95.67;57.15;;;;;;;1.70;71.45;95869.53;1780459;81;21122;-83
2021/03/16 06:59:07;;;;;;;70.25;45.63;;;;;;;1.75;71.50;95870.72;1780278;81;21421;-83
2021/03/16 07:01:35;;;;;;;74.53;47.73;;;;;;;1.80;71.61;95875.45;1758400;81;21154;-83
2021/03/16 07:04:14;;;;;;;153.18;92.12;;;;;;;1.82;71.69;95880.42;1758423;81;21158;-83
2021/03/16 07:06:42;;;;;;;80.55;50.20;;;;;;;1.78;71.67;95878.59;1779634;81;21344;-83
2021/03/16 07:09:10;;;;;;;99.60;62.48;;;;;;;1.74;71.76;95881.91;1703735;81;21364;-82
2021/03/16 07:11:51;;;;;;;54.45;35.25;;;;;;;1.74;71.97;95888.31;1734527;81;21269;-82
2021/03/16 07:14:21;;;;;;;65.97;41.35;;;;;;;1.76;72.19;95890.27;1760283;81;21122;-83
2021/03/16 07:16:53;;;;;;;69.40;45.40;;;;;;;1.79;72.22;95890.00;1780444;81;21105;-83
2021/03/16 07:19:20;;;;;;;68.37;43.98;;;;;;;1.81;72.32;95891.15;1734300;81;21401;-83
2021/03/16 07:21:54;;;;;;;69.55;46.45;;;;;;;1.84;72.38;95890.05;1758831;81;21249;-83
2021/03/16 07:24:30;;;;;;;67.22;43.90;;;;;;;1.85;72.54;95892.95;1780329;81;21276;-83
2021/03/16 07:27:01;;;;;;;69.50;43.38;;;;;;;1.86;72.72;95898.41;1780013;80;21337;-83
2021/03/16 07:29:35;;;;;;;58.40;37.42;;;;;;;1.85;72.81;95893.75;1780242;81;21433;-83
2021/03/16 07:32:07;;;;;;;72.25;47.33;;;;;;;1.87;72.84;95899.54;1780495;81;21098;-83
2021/03/16 07:34:39;;;;;;;83.50;50.58;;;;;;;1.94;72.87;95901.06;1758372;81;21333;-83
2021/03/16 07:37:30;;;;;;;55.45;37.38;;;;;;;1.99;73.04;95901.47;1780424;81;21110;-83
2021/03/16 07:40:04;;;;;;;63.45;41.35;;;;;;;2.06;73.13;95902.51;1780425;81;21107;-83
2021/03/16 07:42:38;;;;;;;68.22;46.00;;;;;;;2.12;73.23;95906.28;1757082;80;21131;-83
2021/03/16 07:45:15;;;;;;;64.97;46.02;;;;;;;2.15;73.41;95910.64;1734486;82;28213;-83
2021/03/16 07:47:44;;;;;;;57.05;38.30;;;;;;;2.27;73.47;95909.49;1748055;82;21150;-83
2021/03/16 07:50:15;;;;;;;55.80;36.70;;;;;;;2.35;73.33;95910.08;1726734;81;21354;-83
2021/03/16 07:52:45;;;;;;;60.20;38.48;;;;;;;2.35;73.39;95916.02;1734983;81;21145;-83
2021/03/16 07:55:29;;;;;;;63.48;40.30;;;;;;;2.34;73.34;95922.09;1762241;81;21115;-82
2021/03/16 07:58:12;;;;;;;66.20;38.95;;;;;;;2.35;73.37;95921.62;1759386;81;21145;-83
2021/03/16 08:00:39;;;;;;;61.73;39.45;;;;;;;2.36;73.35;95920.67;1762792;81;21122;-83
2021/03/16 08:03:11;;;;;;;60.28;39.50;;;;;;;2.43;73.34;95920.42;1760078;81;21145;-83
2021/03/16 08:05:45;;;;;;;54.53;37.17;;;;;;;2.47;73.48;95926.90;1758330;81;21252;-83
2021/03/16 08:08:16;;;;;;;65.50;42.00;;;;;;;2.51;73.61;95923.56;1762951;81;21130;-83
2021/03/16 08:10:51;;;;;;;59.03;36.70;;;;;;;2.59;73.94;95927.48;1763124;81;21106;-83
2021/03/16 08:13:21;;;;;;;61.20;40.03;;;;;;;2.62;73.80;95922.09;1763054;81;21130;-83
2021/03/16 08:15:51;;;;;;;60.35;38.17;;;;;;;2.65;74.01;95925.66;1763082;81;21082;-83
2021/03/16 08:18:30;;;;;;;54.30;35.88;;;;;;;2.60;73.92;95924.81;1762404;81;21145;-83
2021/03/16 08:21:11;;;;;;;52.10;37.00;;;;;;;2.62;73.89;95929.80;1762224;81;21177;-83
2021/03/16 08:23:40;;;;;;;56.45;37.58;;;;;;;2.64;73.97;95922.76;1762175;81;21161;-83
2021/03/16 08:26:08;;;;;;;59.20;37.15;;;;;;;2.60;73.99;95932.50;1760476;81;21133;-83
2021/03/16 08:28:42;;;;;;;60.43;39.20;;;;;;;2.58;74.07;95930.53;1762833;81;21086;-83
2021/03/16 08:31:08;;;;;;;59.48;38.85;;;;;;;2.60;74.27;95931.22;1761693;81;21157;-83
2021/03/16 08:33:38;;;;;;;65.15;41.40;;;;;;;2.62;74.27;95939.58;1762439;81;21145;-83
2021/03/16 08:36:05;;;;;;;59.70;37.05;;;;;;;2.64;74.37;95938.15;1735336;81;21240;-83
2021/03/16 08:38:33;;;;;;;53.33;33.45;;;;;;;2.66;74.58;95937.05;1762213;81;21440;-83
2021/03/16 08:41:13;;;;;;;48.20;32.67;;;;;;;2.70;74.45;95938.37;1762377;81;21503;-83
2021/03/16 08:43:42;;;;;;;54.38;34.38;;;;;;;2.75;74.39;95936.64;1762927;81;21174;-83
2021/03/16 08:46:11;;;;;;;41.70;26.93;;;;;;;2.80;74.34;95934.95;1763049;81;21220;-83
2021/03/16 08:48:45;;;;;;;50.60;33.70;;;;;;;2.87;74.48;95934.69;1763055;81;21332;-83
2021/03/16 08:51:12;;;;;;;54.42;36.53;;;;;;;2.87;74.44;95943.20;1749669;82;21257;-83
2021/03/16 08:53:46;;;;;;;56.48;36.90;;;;;;;2.84;74.59;95943.49;1749698;82;21122;-82
2021/03/16 08:56:13;;;;;;;57.58;35.73;;;;;;;2.85;74.32;95943.82;1749854;82;21102;-83
2021/03/16 08:58:39;;;;;;;54.88;35.68;;;;;;;2.84;74.65;95947.81;1683230;82;21119;-83
2021/03/16 09:01:24;;;;;;;56.20;35.85;;;;;;;2.80;74.44;95952.44;1749657;82;21133;-83
2021/03/16 09:03:52;;;;;;;53.52;34.48;;;;;;;2.81;74.59;95954.05;1730228;82;21149;-83
2021/03/16 09:06:20;;;;;;;56.30;35.45;;;;;;;2.85;74.69;95952.00;1749655;82;21121;-83
2021/03/16 09:08:51;;;;;;;54.08;35.00;;;;;;;2.92;74.83;95956.39;1749621;82;21229;-83
2021/03/16 09:11:32;;;;;;;46.90;30.72;;;;;;;3.00;74.85;95956.49;1749713;82;21233;-83
2021/03/16 09:14:16;;;;;;;47.10;32.30;;;;;;;2.99;74.81;95952.31;1749838;82;21115;-83
2021/03/16 09:16:50;;;;;;;49.25;32.25;;;;;;;2.96;74.96;95947.95;1749627;82;21111;-83
2021/03/16 09:19:21;;;;;;;47.00;30.60;;;;;;;2.99;75.24;95957.45;1749751;82;21134;-83
2021/03/16 09:22:01;;;;;;;50.63;32.85;;;;;;;3.01;75.13;95958.58;1749565;82;21091;-83
2021/03/16 09:24:30;;;;;;;63.05;40.60;;;;;;;3.03;75.07;95959.72;1749301;82;21378;-83
2021/03/16 09:27:02;;;;;;;49.25;34.90;;;;;;;3.08;75.19;95957.52;1749558;82;21252;-83
2021/03/16 09:29:34;;;;;;;70.67;48.83;;;;;;;3.13;75.34;95956.62;1749741;82;21138;-83
2021/03/16 09:32:08;;;;;;;84.17;57.83;;;;;;;3.19;75.45;95960.68;1749764;82;21119;-83
2021/03/16 09:34:39;;;;;;;83.87;58.52;;;;;;;3.22;75.41;95964.23;1748728;82;21428;-83
2021/03/16 09:37:08;;;;;;;90.25;60.20;;;;;;;3.24;75.47;95966.66;1749900;82;21261;-83
2021/03/16 09:39:34;;;;;;;111.50;81.00;;;;;;;3.27;75.64;95962.05;1749721;82;21118;-83
2021/03/16 09:42:01;;;;;;;66.90;45.40;;;;;;;3.33;75.10;95967.07;1749745;82;21113;-83
2021/03/16 09:44:37;;;;;;;61.33;39.20;;;;;;;3.41;75.31;95967.61;1749602;82;21158;-83
2021/03/16 09:47:06;;;;;;;66.55;41.60;;;;;;;3.41;75.27;95963.75;1749624;82;21408;-83
2021/03/16 09:49:41;;;;;;;63.98;38.40;;;;;;;3.43;75.39;95969.58;1751048;82;21133;-83
2021/03/16 09:52:11;;;;;;;67.45;42.25;;;;;;;3.44;75.14;95975.05;1755387;82;21135;-83
2021/03/16 09:54:44;;;;;;;65.80;41.45;;;;;;;3.44;75.17;95973.28;1755539;82;21126;-83
2021/03/16 09:57:16;;;;;;;62.78;40.35;;;;;;;3.48;75.15;95971.22;1755269;82;21233;-83
2021/03/16 09:59:43;;;;;;;59.50;39.67;;;;;;;3.52;74.98;95972.05;1755233;82;21130;-83
2021/03/16 10:02:11;;;;;;;63.42;41.83;;;;;;;3.54;74.85;95978.32;1755282;82;21121;-83
2021/03/16 10:04:49;;;;;;;60.05;39.05;;;;;;;3.52;74.93;95981.04;1755277;82;21149;-83
2021/03/16 10:07:27;;;;;;;61.83;39.48;;;;;;;3.48;74.72;95978.92;1755338;82;21138;-83
2021/03/16 10:09:54;;;;;;;65.08;44.13;;;;;;;3.41;74.85;95982.53;1754820;82;21146;-83
2021/03/16 10:12:22;;;;;;;64.20;39.40;;;;;;;3.37;74.99;95981.22;1755239;82;21237;-83
2021/03/16 10:14:49;;;;;;;56.95;40.25;;;;;;;3.39;75.05;95982.36;1755149;82;21346;-83
2021/03/16 10:17:29;;;;;;;58.70;39.27;;;;;;;3.41;74.96;95986.87;1755233;82;21110;-83
2021/03/16 10:20:05;;;;;;;62.53;38.78;;;;;;;3.39;75.07;95989.59;1755219;82;21142;-83
2021/03/16 10:22:33;;;;;;;67.45;43.87;;;;;;;3.41;75.13;95991.53;1755168;82;21229;-83
2021/03/16 10:25:02;;;;;;;62.55;42.23;;;;;;;3.40;75.24;95991.20;1755256;82;21341;-83
2021/03/16 10:27:33;;;;;;;61.73;41.02;;;;;;;3.43;75.17;95987.08;1755228;82;21329;-83
2021/03/16 10:30:08;;;;;;;69.62;43.90;;;;;;;3.44;75.33;95983.55;1755194;82;21138;-83
2021/03/16 10:32:34;;;;;;;63.00;42.65;;;;;;;3.41;75.11;95986.39;1755122;81;21134;-83
2021/03/16 10:35:00;;;;;;;66.65;43.13;;;;;;;3.42;75.17;95986.75;1755210;82;21269;-83
2021/03/16 10:37:26;;;;;;;65.60;41.30;;;;;;;3.48;75.42;95995.14;1755130;82;21095;-83
2021/03/16 10:39:55;;;;;;;67.53;43.02;;;;;;;3.54;75.27;95982.17;1755122;82;21252;-83
2021/03/16 10:42:20;;;;;;;66.45;44.38;;;;;;;3.58;75.38;95988.66;1755139;82;21460;-83
2021/03/16 10:44:46;;;;;;;63.42;42.17;;;;;;;3.61;75.36;95991.73;1755119;82;21110;-83
2021/03/16 10:47:13;;;;;;;73.80;46.73;;;;;;;3.62;75.41;95987.39;1755117;82;21109;-83
2021/03/16 10:49:39;;;;;;;68.70;44.40;;;;;;;3.60;75.37;95989.30;1753992;82;21205;-83
2021/03/16 10:52:05;;;;;;;78.50;46.48;;;;;;;3.56;75.27;95986.20;1749570;82;21103;-83
2021/03/16 10:54:30;;;;;;;74.42;44.00;;;;;;;3.56;75.17;95990.05;1749602;82;21433;-83
2021/03/16 10:56:57;;;;;;;65.75;42.75;;;;;;;3.55;75.13;95994.87;1749547;82;21249;-83
2021/03/16 10:59:23;;;;;;;65.70;44.33;;;;;;;3.56;75.17;95990.05;1749479;82;21119;-83
2021/03/16 11:01:50;;;;;;;71.77;44.18;;;;;;;3.55;75.14;95989.73;1749572;82;21087;-83
2021/03/16 11:04:19;;;;;;;72.22;45.17;;;;;;;3.55;75.17;95985.88;1749475;82;21158;-83
2021/03/16 11:06:45;;;;;;;64.22;42.40;;;;;;;3.54;75.30;95989.88;1749593;82;21114;-83
2021/03/16 11:09:13;;;;;;;72.78;46.40;;;;;;;3.55;75.33;95992.78;1749474;82;21128;-83
2021/03/16 11:11:40;;;;;;;81.25;52.48;;;;;;;3.54;75.35;95992.45;1749053;82;21134;-83
2021/03/16 11:14:06;;;;;;;68.83;44.77;;;;;;;3.56;75.30;95994.39;1749597;82;21110;-83
2021/03/16 11:16:32;;;;;;;65.62;42.55;;;;;;;3.60;75.23;95992.69;1749642;82;21342;-83
2021/03/16 11:18:58;;;;;;;66.50;43.05;;;;;;;3.65;75.34;95989.66;1728403;82;21134;-83
2021/03/16 11:21:24;;;;;;;67.37;41.73;;;;;;;3.66;75.30;95994.32;1749534;82;21441;-83
2021/03/16 11:23:51;;;;;;;62.85;41.25;;;;;;;3.66;75.30;95993.84;1749503;82;21154;-83
2021/03/16 11:26:17;;;;;;;63.33;41.75;;;;;;;3.61;75.27;95996.87;1749567;82;21114;-83
2021/03/16 11:28:43;;;;;;;64.37;40.88;;;;;;;3.59;75.24;95996.69;1749483;82;21255;-83
2021/03/16 11:31:10;;;;;;;60.12;38.20;;;;;;;3.53;75.23;95993.41;1749691;82;21443;-83